Time;durP1;ratioP1;P1;durP2;ratioP2;P2;SDS_P1;SDS_P2;PMS_P1;PMS_P2;Temp;Humidity;BMP_temperature;BMP_pressure;BME280_temperature;BME280_humidity;BME280_pressure;Samples;Min_cycle;Max_cycle;Signal;HPM_P1;HPM_P2
2022/05/28 00:00:34;;;;;;;7.87;2.73;;;10.20;99.90;;;;;;5109761;28;20234;-50
2022/05/28 00:03:03;;;;;;;7.93;2.60;;;10.10;99.90;;;;;;5109076;28;20368;-50
2022/05/28 00:05:34;;;;;;;15.53;3.00;;;10.10;99.90;;;;;;5110045;28;20643;-50
2022/05/28 00:08:02;;;;;;;9.47;2.70;;;10.00;99.90;;;;;;5109178;28;20233;-50
2022/05/28 00:10:33;;;;;;;9.30;2.70;;;9.90;99.90;;;;;;5109728;28;20552;-50
2022/05/28 00:13:01;;;;;;;10.43;2.97;;;9.80;99.90;;;;;;5109591;28;20231;-50
2022/05/28 00:15:29;;;;;;;9.50;2.93;;;9.80;99.90;;;;;;5109441;28;20204;-49
2022/05/28 00:17:58;;;;;;;8.70;2.73;;;9.80;99.90;;;;;;5109698;28;20268;-50
2022/05/28 00:20:27;;;;;;;10.13;3.13;;;9.80;99.90;;;;;;5102963;28;20196;-50
2022/05/28 00:22:57;;;;;;;9.03;3.07;;;9.80;99.90;;;;;;5101096;28;20231;-50
2022/05/28 00:25:25;;;;;;;10.23;3.03;;;9.80;99.90;;;;;;5109133;28;20303;-50
2022/05/28 00:27:53;;;;;;;9.37;3.20;;;9.80;99.90;;;;;;5109771;28;20279;-50
2022/05/28 00:30:22;;;;;;;8.80;2.60;;;9.70;99.90;;;;;;5109587;28;20209;-49
2022/05/28 00:32:50;;;;;;;11.40;2.93;;;9.70;99.90;;;;;;5108059;28;20229;-49
2022/05/28 00:35:20;;;;;;;10.27;2.77;;;9.70;99.90;;;;;;5110948;28;20277;-50
2022/05/28 00:37:48;;;;;;;11.27;2.93;;;9.70;99.90;;;;;;5112510;28;20227;-50
2022/05/28 00:40:21;;;;;;;7.40;2.80;;;9.70;99.90;;;;;;5113351;28;20303;-50
2022/05/28 00:42:50;;;;;;;7.77;2.60;;;9.60;99.90;;;;;;5112989;28;20224;-50
2022/05/28 00:45:19;;;;;;;13.63;2.93;;;9.60;99.90;;;;;;5112720;28;20213;-50
2022/05/28 00:47:54;;;;;;;6.23;2.80;;;9.50;99.90;;;;;;5112983;28;20231;-50
2022/05/28 00:50:23;;;;;;;13.53;3.37;;;9.50;99.90;;;;;;5112791;28;20207;-50
2022/05/28 00:52:51;;;;;;;14.00;3.33;;;9.50;99.90;;;;;;5133655;27;20218;-50
2022/05/28 00:55:21;;;;;;;9.87;2.73;;;9.50;99.90;;;;;;5133447;27;20727;-50
2022/05/28 00:57:50;;;;;;;8.50;2.63;;;9.50;99.90;;;;;;5125180;27;20672;-50
2022/05/28 01:00:21;;;;;;;9.07;2.93;;;9.50;99.90;;;;;;5111425;28;20245;-50
2022/05/28 01:02:53;;;;;;;10.33;3.10;;;9.50;99.90;;;;;;5109926;28;20658;-51
2022/05/28 01:05:28;;;;;;;9.50;3.10;;;9.50;99.90;;;;;;5111306;28;20242;-51
2022/05/28 01:08:09;;;;;;;7.63;2.53;;;9.50;99.90;;;;;;5110892;28;20226;-50
2022/05/28 01:10:47;;;;;;;9.87;3.00;;;9.50;99.90;;;;;;5112928;28;20204;-49
2022/05/28 01:13:22;;;;;;;9.23;3.23;;;9.40;99.90;;;;;;5112090;28;20263;-50
2022/05/28 01:15:56;;;;;;;7.97;3.00;;;9.40;99.90;;;;;;5112217;28;20203;-50
2022/05/28 01:18:30;;;;;;;9.50;2.80;;;9.40;99.90;;;;;;5113147;28;20246;-50
2022/05/28 01:21:04;;;;;;;9.47;3.20;;;9.40;99.90;;;;;;5102297;28;20687;-50
2022/05/28 01:23:50;;;;;;;7.83;2.83;;;9.40;99.90;;;;;;5111501;28;20250;-50
2022/05/28 01:26:26;;;;;;;12.07;3.23;;;9.40;99.90;;;;;;5112733;28;20233;-50
2022/05/28 01:29:00;;;;;;;12.10;3.07;;;9.30;99.90;;;;;;5112915;28;20180;-49
2022/05/28 01:31:30;;;;;;;8.83;3.00;;;9.20;99.90;;;;;;5111843;28;20211;-50
2022/05/28 01:34:00;;;;;;;10.77;3.20;;;9.00;99.90;;;;;;5111625;28;20903;-50
2022/05/28 01:36:30;;;;;;;9.53;3.20;;;8.90;99.90;;;;;;5111940;28;20296;-50
2022/05/28 01:38:58;;;;;;;8.60;2.73;;;8.90;99.90;;;;;;5112079;28;20262;-50
2022/05/28 01:41:29;;;;;;;13.27;3.50;;;8.90;99.90;;;;;;5111834;28;20257;-50
2022/05/28 01:43:59;;;;;;;10.10;3.10;;;8.80;99.90;;;;;;5110298;28;20745;-50
2022/05/28 01:46:28;;;;;;;8.67;2.87;;;8.80;99.90;;;;;;5111605;28;20231;-49
2022/05/28 01:48:57;;;;;;;11.37;3.07;;;8.70;99.90;;;;;;5131280;27;20285;-50
2022/05/28 01:51:33;;;;;;;11.20;3.13;;;8.60;99.90;;;;;;5131953;27;20628;-50
2022/05/28 01:54:11;;;;;;;12.43;3.30;;;8.60;99.90;;;;;;5132049;27;20221;-50
2022/05/28 01:56:43;;;;;;;9.03;3.00;;;8.70;99.90;;;;;;5132189;27;20932;-50
2022/05/28 01:59:14;;;;;;;10.77;3.23;;;8.60;99.90;;;;;;5114449;27;20207;-50
2022/05/28 02:01:42;;;;;;;9.27;3.17;;;8.70;99.90;;;;;;5110826;28;20242;-50
2022/05/28 02:04:11;;;;;;;10.77;3.50;;;8.60;99.90;;;;;;5111731;28;20207;-51
2022/05/28 02:06:41;;;;;;;8.77;2.73;;;8.50;99.90;;;;;;5110804;28;20630;-50
2022/05/28 02:09:13;;;;;;;11.37;3.40;;;8.50;99.90;;;;;;5111379;28;20892;-50
2022/05/28 02:11:59;;;;;;;6.37;2.80;;;8.40;99.90;;;;;;5111691;28;20272;-50
2022/05/28 02:14:39;;;;;;;10.87;3.37;;;8.40;99.90;;;;;;5089723;28;20697;-50
2022/05/28 02:17:17;;;;;;;10.90;3.00;;;8.40;99.90;;;;;;5094343;28;20753;-50
2022/05/28 02:19:58;;;;;;;12.70;3.67;;;8.40;99.90;;;;;;5101062;28;20292;-50
2022/05/28 02:22:36;;;;;;;9.10;3.80;;;8.40;99.90;;;;;;5101116;28;20748;-50
2022/05/28 02:25:11;;;;;;;9.17;3.03;;;8.30;99.90;;;;;;5107681;28;20238;-49
2022/05/28 02:27:41;;;;;;;8.17;3.30;;;8.30;99.90;;;;;;5111124;28;20265;-50
2022/05/28 02:30:12;;;;;;;8.17;3.20;;;8.20;99.90;;;;;;5108407;28;20238;-50
2022/05/28 02:32:40;;;;;;;8.77;2.90;;;8.20;99.90;;;;;;5099002;28;20716;-50
2022/05/28 02:35:10;;;;;;;9.57;3.13;;;8.20;99.90;;;;;;5110929;28;20253;-50
2022/05/28 02:37:38;;;;;;;8.67;3.03;;;8.20;99.90;;;;;;5110399;28;20295;-50
2022/05/28 02:40:08;;;;;;;11.67;2.83;;;8.20;99.90;;;;;;5110838;28;20251;-49
2022/05/28 02:42:36;;;;;;;10.37;3.03;;;8.20;99.90;;;;;;5110718;28;20219;-50
2022/05/28 02:45:05;;;;;;;9.97;3.43;;;8.10;99.90;;;;;;5109695;28;20207;-50
2022/05/28 02:47:34;;;;;;;12.87;3.10;;;8.10;99.90;;;;;;5105487;28;20204;-50
2022/05/28 02:50:02;;;;;;;7.50;2.70;;;8.10;99.90;;;;;;5101438;28;20246;-50
2022/05/28 02:52:30;;;;;;;11.10;3.33;;;8.00;99.90;;;;;;5108772;28;20309;-50
2022/05/28 02:54:58;;;;;;;9.70;3.67;;;8.00;99.90;;;;;;5110826;28;20648;-50
2022/05/28 02:57:26;;;;;;;11.97;3.27;;;8.00;99.90;;;;;;5109678;28;20257;-50
2022/05/28 02:59:56;;;;;;;7.17;2.93;;;8.00;99.90;;;;;;5110933;28;20262;-50
2022/05/28 03:02:27;;;;;;;9.57;3.00;;;8.00;99.90;;;;;;5109327;28;20263;-50
2022/05/28 03:04:56;;;;;;;9.97;3.00;;;7.90;99.90;;;;;;5110343;28;20202;-50
2022/05/28 03:07:24;;;;;;;6.90;2.80;;;7.90;99.90;;;;;;5110231;28;20238;-50
2022/05/28 03:09:53;;;;;;;10.67;3.13;;;7.90;99.90;;;;;;5110108;28;20549;-50
2022/05/28 03:12:21;;;;;;;10.80;3.30;;;7.90;99.90;;;;;;5109882;28;20229;-50
2022/05/28 03:14:49;;;;;;;9.10;3.33;;;7.90;99.90;;;;;;5109249;28;20639;-50
2022/05/28 03:17:17;;;;;;;9.60;2.97;;;7.80;99.90;;;;;;5110514;28;20211;-49
2022/05/28 03:19:45;;;;;;;9.87;2.90;;;7.90;99.90;;;;;;5109908;28;20234;-50
2022/05/28 03:22:14;;;;;;;12.07;3.07;;;7.90;99.90;;;;;;5099801;28;20278;-50
2022/05/28 03:24:42;;;;;;;7.40;3.20;;;7.80;99.90;;;;;;5105945;28;20294;-50
2022/05/28 03:27:11;;;;;;;8.87;3.00;;;7.80;99.90;;;;;;5110063;28;20203;-50
2022/05/28 03:29:39;;;;;;;6.83;2.60;;;7.80;99.90;;;;;;5109980;28;20203;-50
2022/05/28 03:32:08;;;;;;;8.43;3.30;;;7.80;99.90;;;;;;5109089;28;20257;-50
2022/05/28 03:34:36;;;;;;;7.10;3.37;;;7.80;99.90;;;;;;5109985;28;20199;-50
2022/05/28 03:37:04;;;;;;;7.90;3.30;;;7.80;99.90;;;;;;5109698;28;20205;-52
2022/05/28 03:39:34;;;;;;;15.80;4.03;;;7.80;99.90;;;;;;5109816;28;20219;-52
2022/05/28 03:42:02;;;;;;;6.03;3.00;;;7.80;99.90;;;;;;5109419;28;20226;-50
2022/05/28 03:44:30;;;;;;;9.50;3.50;;;7.80;99.90;;;;;;5109066;28;20203;-50
2022/05/28 03:47:00;;;;;;;6.77;3.20;;;7.80;99.90;;;;;;5109599;28;20624;-50
2022/05/28 03:49:30;;;;;;;8.67;3.30;;;7.80;99.90;;;;;;5109940;28;20206;-50
2022/05/28 03:51:58;;;;;;;7.97;3.40;;;7.80;99.90;;;;;;5108969;28;20272;-50
2022/05/28 03:54:26;;;;;;;9.47;3.10;;;7.80;99.90;;;;;;5110007;28;20211;-50
2022/05/28 03:56:59;;;;;;;9.47;3.40;;;7.90;99.90;;;;;;5109169;28;21056;-50
2022/05/28 03:59:27;;;;;;;10.07;2.93;;;7.90;99.90;;;;;;5109523;28;21054;-50
2022/05/28 04:01:55;;;;;;;10.97;3.13;;;7.90;99.90;;;;;;5109526;28;20308;-50
2022/05/28 04:04:23;;;;;;;8.20;3.10;;;7.90;99.90;;;;;;5109718;28;20213;-50
2022/05/28 04:06:52;;;;;;;9.97;3.03;;;8.00;99.90;;;;;;5109440;28;20607;-50
2022/05/28 04:09:20;;;;;;;9.47;3.53;;;8.20;99.90;;;;;;5111139;28;20253;-50
2022/05/28 04:11:48;;;;;;;12.13;3.40;;;8.30;99.90;;;;;;5114758;28;20598;-50
2022/05/28 04:14:17;;;;;;;11.83;3.47;;;8.30;99.90;;;;;;5124362;28;20218;-52
2022/05/28 04:16:45;;;;;;;7.97;3.30;;;8.60;99.90;;;;;;5124661;28;20247;-50
2022/05/28 04:19:13;;;;;;;7.90;3.20;;;9.20;99.90;;;;;;5124118;28;20292;-50
2022/05/28 04:21:42;;;;;;;11.10;3.47;;;9.70;99.90;;;;;;5107423;28;20256;-51
2022/05/28 04:24:09;;;;;;;9.00;3.00;;;10.30;99.90;;;;;;5103908;28;20235;-50
2022/05/28 04:26:38;;;;;;;7.83;2.87;;;11.40;99.90;;;;;;5101448;28;20749;-50
2022/05/28 04:29:06;;;;;;;7.17;2.97;;;12.30;99.90;;;;;;5113749;28;20559;-50
2022/05/28 04:31:36;;;;;;;11.13;3.23;;;12.80;99.90;;;;;;5112233;28;20742;-50
2022/05/28 04:34:04;;;;;;;8.63;3.10;;;13.30;99.90;;;;;;5112899;28;20246;-51
2022/05/28 04:36:33;;;;;;;9.77;3.30;;;13.90;99.90;;;;;;5113031;28;20673;-52
2022/05/28 04:39:01;;;;;;;7.57;3.03;;;14.00;99.90;;;;;;5112852;28;20247;-50
2022/05/28 04:41:29;;;;;;;10.33;3.50;;;13.20;99.90;;;;;;5113479;28;20247;-51
2022/05/28 04:43:57;;;;;;;6.57;3.30;;;12.50;99.90;;;;;;5111569;28;20680;-51
2022/05/28 04:46:26;;;;;;;10.50;3.17;;;12.00;99.90;;;;;;5113212;28;20212;-50
2022/05/28 04:48:56;;;;;;;12.60;3.70;;;11.60;99.90;;;;;;5113397;28;20207;-50
2022/05/28 04:51:24;;;;;;;9.53;3.40;;;11.40;99.90;;;;;;5112264;28;20293;-51
2022/05/28 04:53:52;;;;;;;5.93;3.10;;;11.30;99.90;;;;;;5111643;28;20266;-51
2022/05/28 04:56:21;;;;;;;5.53;2.60;;;11.20;99.90;;;;;;5112877;28;20261;-51
2022/05/28 04:58:49;;;;;;;7.43;3.07;;;11.50;99.90;;;;;;5112446;28;20215;-51
2022/05/28 05:01:19;;;;;;;6.37;2.80;;;11.50;99.90;;;;;;5113834;28;20204;-50
2022/05/28 05:03:48;;;;;;;7.70;3.20;;;12.10;99.90;;;;;;5112442;28;20218;-51
2022/05/28 05:06:17;;;;;;;10.80;3.40;;;13.40;99.90;;;;;;5102695;28;20200;-51
2022/05/28 05:08:46;;;;;;;10.87;3.23;;;13.30;99.90;;;;;;5109137;28;20243;-51
2022/05/28 05:11:15;;;;;;;6.53;3.00;;;12.70;99.90;;;;;;5112580;28;20227;-51
2022/05/28 05:13:43;;;;;;;8.10;2.90;;;12.30;99.90;;;;;;5111278;28;20239;-51
2022/05/28 05:16:16;;;;;;;6.53;3.00;;;11.90;99.90;;;;;;5112415;28;20207;-51
2022/05/28 05:18:45;;;;;;;9.30;3.53;;;11.70;99.90;;;;;;5113756;27;20580;-51
2022/05/28 05:21:13;;;;;;;10.87;3.57;;;11.50;99.90;;;;;;5109069;28;20290;-51
2022/05/28 05:23:44;;;;;;;7.07;3.63;;;11.40;99.90;;;;;;5098821;28;20254;-55
2022/05/28 05:26:13;;;;;;;11.30;3.80;;;11.40;99.90;;;;;;5112153;28;20261;-51
2022/05/28 05:28:42;;;;;;;12.13;3.73;;;11.40;99.90;;;;;;5112422;28;20203;-51
2022/05/28 05:31:12;;;;;;;10.57;3.30;;;11.40;99.90;;;;;;5111904;28;20231;-51
2022/05/28 05:33:40;;;;;;;8.77;3.30;;;11.40;99.90;;;;;;5111088;28;20273;-51
2022/05/28 05:36:09;;;;;;;9.50;3.53;;;11.50;99.90;;;;;;5111821;28;20265;-51
2022/05/28 05:38:37;;;;;;;10.17;3.53;;;12.20;99.90;;;;;;5110782;28;20207;-51
2022/05/28 05:41:07;;;;;;;5.37;3.10;;;13.10;99.90;;;;;;5111878;28;20245;-51
2022/05/28 05:43:35;;;;;;;7.73;3.20;;;13.40;99.90;;;;;;5110860;28;20250;-51
2022/05/28 05:46:04;;;;;;;6.03;2.93;;;14.30;99.90;;;;;;5109970;28;20203;-51
2022/05/28 05:48:33;;;;;;;6.83;3.20;;;14.60;99.90;;;;;;5111293;28;20211;-52
2022/05/28 05:51:08;;;;;;;11.77;3.70;;;14.10;99.90;;;;;;5111206;28;20259;-51
2022/05/28 05:53:36;;;;;;;5.90;2.80;;;13.90;99.90;;;;;;5111041;28;20284;-51
2022/05/28 05:56:05;;;;;;;8.20;3.03;;;14.30;99.90;;;;;;5108056;28;20235;-51
2022/05/28 05:58:35;;;;;;;7.18;2.90;;;15.00;99.90;;;;;;5090152;28;20222;-51
2022/05/28 06:01:04;;;;;;;5.95;2.78;;;16.10;99.90;;;;;;5100032;28;20257;-51
2022/05/28 06:03:33;;;;;;;8.80;3.40;;;16.30;99.90;;;;;;5098711;28;20776;-51
2022/05/28 06:06:02;;;;;;;9.35;3.70;;;16.40;99.90;;;;;;5102043;28;20223;-51
2022/05/28 06:08:31;;;;;;;5.70;3.20;;;16.90;99.90;;;;;;5089647;28;20230;-51
2022/05/28 06:11:00;;;;;;;8.07;3.28;;;17.30;99.90;;;;;;5090391;28;20278;-51
2022/05/28 06:13:28;;;;;;;9.80;3.38;;;17.70;99.90;;;;;;5090349;28;20263;-51
2022/05/28 06:15:57;;;;;;;7.65;2.75;;;17.90;99.90;;;;;;5089677;28;20211;-51
2022/05/28 06:18:25;;;;;;;5.75;2.92;;;18.40;99.90;;;;;;5090590;28;20608;-51
2022/05/28 06:20:54;;;;;;;4.80;2.40;;;18.70;99.90;;;;;;5103378;28;20196;-51
2022/05/28 06:23:23;;;;;;;4.80;2.45;;;18.90;99.90;;;;;;5105791;28;20227;-51
2022/05/28 06:25:51;;;;;;;4.85;2.20;;;19.00;99.90;;;;;;5108739;28;20243;-51
2022/05/28 06:28:19;;;;;;;6.40;2.22;;;18.70;99.90;;;;;;5094406;28;20208;-51
2022/05/28 06:30:49;;;;;;;6.20;2.42;;;18.90;99.90;;;;;;5108363;28;20730;-51
2022/05/28 06:33:19;;;;;;;6.45;2.30;;;18.90;99.90;;;;;;5093168;28;20236;-51
2022/05/28 06:35:47;;;;;;;6.22;2.35;;;18.80;99.90;;;;;;5110149;28;20291;-51
2022/05/28 06:38:15;;;;;;;6.85;2.45;;;18.70;99.90;;;;;;5110019;28;20258;-51
2022/05/28 06:40:44;;;;;;;4.10;2.05;;;18.80;99.90;;;;;;5110196;28;20203;-50
2022/05/28 06:43:12;;;;;;;3.35;1.67;;;19.10;99.90;;;;;;5095128;28;20224;-51
2022/05/28 06:45:40;;;;;;;7.30;2.00;;;19.40;99.90;;;;;;5088916;28;20197;-51
2022/05/28 06:48:09;;;;;;;6.68;2.05;;;19.20;99.90;;;;;;5101679;28;20203;-51
2022/05/28 06:53:24;;;;;;;3.88;1.83;;;18.70;99.90;;;;;;5103358;28;20227;-52
2022/05/28 06:55:53;;;;;;;3.72;1.75;;;18.80;99.90;;;;;;5086922;28;20212;-51
2022/05/28 06:58:21;;;;;;;4.68;1.92;;;19.10;99.90;;;;;;5099436;27;20219;-51
2022/05/28 07:00:49;;;;;;;8.40;1.80;;;19.50;99.90;;;;;;5098570;27;20281;-52
2022/05/28 07:03:20;;;;;;;1.98;1.55;;;19.20;99.40;;;;;;5097561;27;20223;-51
2022/05/28 07:05:49;;;;;;;4.63;1.60;;;19.20;99.20;;;;;;5104259;28;20348;-51
2022/05/28 07:08:18;;;;;;;4.50;1.65;;;19.40;98.60;;;;;;5095089;28;20203;-50
2022/05/28 07:10:48;;;;;;;4.22;1.67;;;19.50;98.00;;;;;;5105884;27;20234;-51
2022/05/28 07:13:18;;;;;;;5.30;1.63;;;19.20;97.30;;;;;;5106613;28;20763;-52
2022/05/28 07:15:46;;;;;;;4.70;1.90;;;19.00;98.00;;;;;;5104015;28;20243;-51
2022/05/28 07:18:14;;;;;;;5.65;1.77;;;18.90;97.50;;;;;;5098772;28;20258;-51
2022/05/28 07:20:43;;;;;;;3.85;1.60;;;19.00;97.00;;;;;;5104745;28;20208;-52
2022/05/28 07:23:14;;;;;;;2.85;1.30;;;18.90;95.90;;;;;;5109346;27;20289;-51
2022/05/28 07:25:44;;;;;;;4.53;1.50;;;19.00;96.10;;;;;;5105124;28;20257;-52
2022/05/28 07:28:29;;;;;;;3.55;1.50;;;19.40;96.80;;;;;;5109043;28;20695;-51
2022/05/28 07:30:59;;;;;;;3.83;1.70;;;19.50;96.90;;;;;;5104888;28;20253;-52
2022/05/28 07:33:29;;;;;;;3.25;1.42;;;20.00;96.20;;;;;;5108707;28;20284;-52
2022/05/28 07:35:58;;;;;;;3.75;1.50;;;20.10;95.20;;;;;;5109115;28;20231;-51
2022/05/28 07:38:30;;;;;;;5.10;1.65;;;19.90;95.90;;;;;;5108874;28;20241;-51
2022/05/28 07:41:02;;;;;;;5.05;1.77;;;19.20;95.00;;;;;;5106194;28;20231;-51
2022/05/28 07:43:30;;;;;;;4.00;1.80;;;19.00;95.30;;;;;;5109318;28;20869;-51
2022/05/28 07:45:58;;;;;;;3.05;1.40;;;19.10;96.00;;;;;;5116261;28;20212;-51
2022/05/28 07:48:27;;;;;;;5.53;1.73;;;19.40;95.90;;;;;;5112566;28;20607;-51
2022/05/28 07:50:55;;;;;;;4.68;1.63;;;18.80;95.30;;;;;;5104321;28;20563;-51
2022/05/28 07:53:23;;;;;;;4.93;1.80;;;18.50;97.10;;;;;;5090693;28;20232;-50
2022/05/28 07:55:53;;;;;;;3.60;1.30;;;19.00;96.90;;;;;;5102994;28;20727;-50
2022/05/28 07:58:21;;;;;;;4.65;1.70;;;19.20;96.70;;;;;;5100459;28;20584;-50
2022/05/28 08:00:51;;;;;;;3.28;1.40;;;19.60;96.60;;;;;;5103145;28;20246;-51
2022/05/28 08:03:19;;;;;;;4.80;1.40;;;19.10;96.10;;;;;;5100489;28;20227;-51
2022/05/28 08:05:49;;;;;;;5.40;2.10;;;19.10;96.50;;;;;;5104264;28;20264;-51
2022/05/28 08:08:19;;;;;;;4.43;1.67;;;19.10;96.40;;;;;;5101180;28;20205;-50
2022/05/28 08:10:48;;;;;;;3.88;1.70;;;19.00;97.00;;;;;;5107263;28;20199;-51
2022/05/28 08:13:20;;;;;;;3.67;1.55;;;18.90;97.00;;;;;;5097463;28;20720;-51
2022/05/28 08:15:50;;;;;;;4.38;1.80;;;18.40;96.50;;;;;;5107156;28;20212;-51
2022/05/28 08:18:21;;;;;;;4.97;1.80;;;18.70;96.10;;;;;;5101565;28;20250;-52
2022/05/28 08:23:34;;;;;;;4.28;1.63;;;18.60;96.20;;;;;;5103366;28;20700;-51
2022/05/28 08:26:02;;;;;;;7.20;2.00;;;18.10;95.50;;;;;;5106998;28;20235;-51
2022/05/28 08:28:32;;;;;;;6.40;1.85;;;18.00;94.70;;;;;;5099882;28;20721;-52
2022/05/28 08:31:00;;;;;;;1.95;1.10;;;17.80;95.70;;;;;;5098543;28;20207;-51
2022/05/28 08:33:29;;;;;;;6.85;1.80;;;17.60;93.50;;;;;;5100940;28;20320;-51
2022/05/28 08:35:57;;;;;;;4.15;1.70;;;17.80;94.50;;;;;;5103294;28;20231;-51
2022/05/28 08:38:26;;;;;;;5.03;2.08;;;17.80;94.60;;;;;;5098114;28;20610;-52
2022/05/28 08:40:58;;;;;;;6.40;1.77;;;17.90;94.90;;;;;;5106099;28;20238;-52
2022/05/28 08:43:29;;;;;;;5.82;2.08;;;17.90;94.70;;;;;;5097236;28;20216;-52
2022/05/28 08:46:00;;;;;;;4.15;1.67;;;17.30;93.40;;;;;;5107265;28;20200;-51
2022/05/28 08:48:36;;;;;;;5.80;1.63;;;17.50;94.80;;;;;;5103484;28;20207;-51
2022/05/28 08:51:09;;;;;;;2.95;1.63;;;17.80;95.40;;;;;;5103305;28;20208;-50
2022/05/28 08:53:43;;;;;;;5.32;1.50;;;17.70;95.40;;;;;;5099667;28;20434;-51
2022/05/28 08:56:22;;;;;;;5.80;1.67;;;18.00;96.50;;;;;;5100827;28;20192;-51
2022/05/28 08:58:58;;;;;;;5.60;1.75;;;17.50;94.10;;;;;;5108059;27;20298;-51
2022/05/28 09:01:31;;;;;;;5.38;1.90;;;17.20;95.30;;;;;;5100104;28;20235;-51
2022/05/28 09:04:04;;;;;;;3.13;1.27;;;17.10;95.00;;;;;;5099170;28;20196;-51
2022/05/28 09:06:38;;;;;;;5.38;1.90;;;16.90;95.10;;;;;;5101954;28;20784;-51
2022/05/28 09:09:09;;;;;;;6.22;2.10;;;16.80;95.60;;;;;;5102326;28;20208;-53
2022/05/28 09:11:40;;;;;;;4.00;1.70;;;16.60;95.20;;;;;;5102426;28;20204;-51
2022/05/28 09:14:27;;;;;;;5.15;1.90;;;17.20;96.60;;;;;;5099569;28;20909;-51
2022/05/28 09:17:01;;;;;;;6.88;1.60;;;17.70;97.50;;;;;;5096174;28;20298;-51
2022/05/28 09:19:33;;;;;;;4.78;1.73;;;18.10;96.90;;;;;;5100166;28;20203;-51
2022/05/28 09:22:01;;;;;;;4.03;1.70;;;18.20;98.00;;;;;;5109086;28;20749;-51
2022/05/28 09:24:31;;;;;;;5.45;1.60;;;18.10;94.10;;;;;;5110627;28;20254;-51
2022/05/28 09:27:05;;;;;;;5.45;1.95;;;18.00;95.60;;;;;;5111206;28;20269;-51
2022/05/28 09:29:48;;;;;;;3.28;1.73;;;18.10;95.70;;;;;;5111180;28;20249;-51
2022/05/28 09:32:28;;;;;;;4.88;1.83;;;18.20;95.70;;;;;;5107235;28;20255;-50
2022/05/28 09:35:07;;;;;;;3.75;1.60;;;17.80;94.30;;;;;;5110790;28;20202;-50
2022/05/28 09:37:44;;;;;;;3.63;1.70;;;17.80;94.60;;;;;;5109942;28;20263;-51
2022/05/28 09:40:19;;;;;;;5.55;1.80;;;17.60;95.30;;;;;;5111140;28;20741;-50
2022/05/28 09:43:03;;;;;;;6.07;2.20;;;17.90;97.10;;;;;;5105721;28;20253;-50
2022/05/28 09:45:43;;;;;;;4.70;1.80;;;18.10;95.30;;;;;;5108737;28;20218;-51
2022/05/28 09:48:20;;;;;;;4.18;1.73;;;18.10;94.40;;;;;;5110995;28;20204;-51
2022/05/28 09:50:48;;;;;;;4.18;1.92;;;18.30;94.60;;;;;;5106413;28;20288;-51
2022/05/28 09:56:23;;;;;;;4.78;1.80;;;18.20;94.90;;;;;;5070805;28;20261;-51
2022/05/28 09:58:52;;;;;;;6.40;1.85;;;18.30;95.50;;;;;;5107346;28;20204;-51
2022/05/28 10:01:22;;;;;;;3.80;1.80;;;18.30;95.40;;;;;;5110336;28;20676;-51
2022/05/28 10:06:50;;;;;;;5.00;1.80;;;17.80;94.70;;;;;;5105923;28;20218;-51
2022/05/28 10:09:20;;;;;;;3.47;2.00;;;17.60;95.00;;;;;;5109874;28;20207;-50
2022/05/28 10:11:53;;;;;;;4.22;1.40;;;17.30;94.30;;;;;;5105040;28;20770;-51
2022/05/28 10:14:22;;;;;;;4.28;1.50;;;17.30;94.10;;;;;;5105487;27;20255;-51
2022/05/28 10:16:55;;;;;;;7.53;2.33;;;17.10;94.10;;;;;;5101854;28;20262;-51
2022/05/28 10:19:30;;;;;;;3.53;1.50;;;17.30;95.80;;;;;;5099410;27;20210;-51
2022/05/28 10:22:01;;;;;;;6.35;1.80;;;17.60;94.50;;;;;;5104187;28;20215;-52
2022/05/28 10:24:42;;;;;;;6.40;1.58;;;17.70;95.10;;;;;;5094537;28;20231;-51
2022/05/28 10:27:25;;;;;;;4.15;1.63;;;17.80;95.80;;;;;;5092860;28;20204;-51
2022/05/28 10:29:56;;;;;;;5.00;1.35;;;17.90;94.50;;;;;;5090833;28;20212;-52
2022/05/28 10:32:32;;;;;;;4.53;1.90;;;18.10;95.50;;;;;;5093792;28;20600;-52
2022/05/28 10:35:06;;;;;;;4.13;1.60;;;18.30;96.00;;;;;;5093911;28;20925;-52
2022/05/28 10:37:35;;;;;;;5.25;1.80;;;18.30;94.70;;;;;;5099623;28;20364;-52
2022/05/28 10:40:08;;;;;;;3.28;1.45;;;18.20;94.50;;;;;;5108335;28;20239;-52
2022/05/28 10:42:37;;;;;;;3.20;1.80;;;18.00;93.30;;;;;;5101057;28;20258;-52
2022/05/28 10:45:07;;;;;;;5.05;1.60;;;18.00;93.00;;;;;;5110674;28;20200;-52
2022/05/28 10:48:15;;;;;;;5.82;1.88;;;18.30;95.20;;;;;;5102610;28;20334;-51
2022/05/28 10:50:57;;;;;;;4.55;1.70;;;18.60;96.00;;;;;;5065396;28;20199;-52
2022/05/28 10:53:43;;;;;;;5.85;1.40;;;18.80;94.60;;;;;;5106291;27;20309;-52
2022/05/28 10:56:25;;;;;;;5.22;1.48;;;18.80;94.20;;;;;;5106209;27;20246;-52
2022/05/28 10:59:04;;;;;;;6.20;1.95;;;18.60;93.70;;;;;;5089525;28;20664;-52
2022/05/28 11:01:41;;;;;;;2.75;1.55;;;18.70;95.00;;;;;;5100603;28;20200;-51
2022/05/28 11:04:33;;;;;;;5.47;1.70;;;18.80;96.00;;;;;;5105918;28;20278;-51
2022/05/28 11:07:20;;;;;;;5.07;1.83;;;18.80;93.60;;;;;;5106213;28;20206;-52
2022/05/28 11:09:59;;;;;;;4.95;1.52;;;18.40;91.20;;;;;;5102665;28;20230;-53
2022/05/28 11:12:49;;;;;;;4.30;2.00;;;18.00;91.80;;;;;;5103014;28;20651;-51
2022/05/28 11:15:31;;;;;;;3.53;1.45;;;17.60;91.80;;;;;;5104359;28;20219;-51
2022/05/28 11:18:20;;;;;;;3.88;1.42;;;17.80;91.60;;;;;;5106842;28;20586;-52
2022/05/28 11:20:57;;;;;;;3.20;1.80;;;18.10;93.20;;;;;;5105642;28;20563;-52
2022/05/28 11:23:44;;;;;;;2.42;1.38;;;18.30;93.00;;;;;;5104427;28;20294;-52
2022/05/28 11:26:22;;;;;;;5.47;2.38;;;18.10;92.00;;;;;;5110873;27;20198;-52
2022/05/28 11:29:14;;;;;;;3.33;1.58;;;18.00;91.90;;;;;;5100639;28;20258;-52
2022/05/28 11:31:47;;;;;;;4.35;1.63;;;17.70;92.80;;;;;;5097819;28;20352;-52
2022/05/28 11:34:20;;;;;;;3.55;1.67;;;17.60;93.30;;;;;;5093545;28;20224;-52
2022/05/28 11:36:53;;;;;;;3.22;1.88;;;17.40;93.20;;;;;;5089293;28;20220;-53
2022/05/28 11:39:32;;;;;;;7.88;2.17;;;17.40;93.50;;;;;;5103115;28;20231;-52
2022/05/28 11:42:07;;;;;;;7.35;2.00;;;17.60;93.40;;;;;;5105317;28;20306;-52
2022/05/28 11:44:42;;;;;;;6.18;2.10;;;18.10;95.40;;;;;;5101048;28;20226;-52
2022/05/28 11:47:20;;;;;;;5.65;1.70;;;18.60;95.80;;;;;;5100405;28;20199;-52
2022/05/28 11:52:47;;;;;;;4.13;1.98;;;18.90;91.80;;;;;;5104244;28;20228;-52
2022/05/28 11:55:20;;;;;;;4.45;1.80;;;19.10;93.40;;;;;;5105059;28;21054;-53
2022/05/28 11:57:55;;;;;;;3.97;1.70;;;19.10;91.90;;;;;;5103116;28;20204;-52
2022/05/28 12:00:25;;;;;;;4.82;1.75;;;18.80;89.80;;;;;;5100076;28;20199;-52
2022/05/28 12:02:58;;;;;;;4.85;1.70;;;18.50;91.60;;;;;;5100800;28;20263;-52
2022/05/28 12:05:41;;;;;;;4.35;1.65;;;18.70;91.80;;;;;;5094276;28;20203;-52
2022/05/28 12:08:21;;;;;;;3.67;1.48;;;18.80;92.20;;;;;;5101432;28;20203;-52
2022/05/28 12:10:54;;;;;;;4.85;2.00;;;19.00;93.70;;;;;;5097050;28;20238;-51
2022/05/28 12:13:30;;;;;;;4.75;1.70;;;19.10;92.20;;;;;;5101679;28;20234;-51
2022/05/28 12:16:09;;;;;;;5.00;1.95;;;19.00;91.40;;;;;;5103877;28;20811;-52
2022/05/28 12:18:42;;;;;;;4.00;1.70;;;18.80;90.50;;;;;;5105842;28;20254;-52
2022/05/28 12:21:11;;;;;;;3.85;1.40;;;19.10;91.20;;;;;;5103282;28;20944;-52
2022/05/28 12:23:41;;;;;;;4.80;1.80;;;19.30;92.00;;;;;;5104929;28;20638;-52
2022/05/28 12:26:47;;;;;;;3.45;1.70;;;19.40;92.90;;;;;;5107357;28;20258;-51
2022/05/28 12:29:34;;;;;;;4.20;1.58;;;19.00;90.00;;;;;;5095770;28;20204;-51
2022/05/28 12:32:27;;;;;;;3.45;1.40;;;18.70;91.50;;;;;;5111341;28;20231;-51
2022/05/28 12:34:58;;;;;;;3.47;1.75;;;18.60;91.80;;;;;;5075363;28;20219;-52
2022/05/28 12:37:31;;;;;;;5.85;1.60;;;18.50;90.90;;;;;;5108661;28;20212;-52
2022/05/28 12:40:23;;;;;;;4.50;1.92;;;18.50;91.80;;;;;;5104092;28;20204;-52
2022/05/28 12:42:53;;;;;;;1.92;1.42;;;18.20;90.90;;;;;;5108427;28;20231;-52
2022/05/28 12:45:36;;;;;;;3.83;1.65;;;18.00;92.60;;;;;;5098120;28;20208;-52
2022/05/28 12:48:07;;;;;;;4.55;1.83;;;17.90;91.80;;;;;;5102083;28;20253;-52
2022/05/28 12:50:49;;;;;;;2.85;1.50;;;17.90;91.60;;;;;;5103212;28;20245;-51
2022/05/28 12:53:20;;;;;;;2.90;1.50;;;18.20;91.30;;;;;;5106571;28;20297;-51
2022/05/28 12:56:00;;;;;;;2.75;1.20;;;18.30;92.60;;;;;;5104424;28;20303;-52
2022/05/28 12:58:32;;;;;;;4.95;1.60;;;18.30;91.50;;;;;;5104546;28;20636;-52
2022/05/28 13:01:03;;;;;;;3.80;1.50;;;18.50;92.00;;;;;;5104977;27;20238;-51
2022/05/28 13:03:37;;;;;;;5.72;1.60;;;18.50;91.70;;;;;;5106195;28;20235;-51
2022/05/28 13:06:11;;;;;;;4.88;1.65;;;18.50;91.10;;;;;;5105712;28;20230;-52
2022/05/28 13:08:46;;;;;;;3.40;1.48;;;18.70;91.70;;;;;;5104265;28;20283;-52
2022/05/28 13:11:28;;;;;;;3.38;1.50;;;18.70;90.80;;;;;;5107523;28;20202;-52
2022/05/28 13:14:21;;;;;;;2.88;1.45;;;18.70;91.30;;;;;;5100492;28;20641;-52
2022/05/28 13:17:13;;;;;;;4.03;1.70;;;18.80;92.30;;;;;;5111166;27;20242;-52
2022/05/28 13:20:08;;;;;;;4.82;1.60;;;18.70;90.60;;;;;;5105823;28;20239;-51
2022/05/28 13:23:09;;;;;;;3.10;1.30;;;18.70;90.50;;;;;;5096707;28;20254;-51
2022/05/28 13:25:56;;;;;;;4.18;1.58;;;18.80;91.80;;;;;;5104779;28;20231;-51
2022/05/28 13:28:41;;;;;;;4.63;1.92;;;19.00;92.00;;;;;;5108841;28;20243;-52